Time;durP1;ratioP1;P1;durP2;ratioP2;P2;SDS_P1;SDS_P2;PMS_P1;PMS_P2;Temp;Humidity;BMP_temperature;BMP_pressure;BME280_temperature;BME280_humidity;BME280_pressure;Samples;Min_cycle;Max_cycle;Signal;HPM_P1;HPM_P2
2023/11/16 00:00:07;;;;;;;72.07;48.40;;;15.50;70.20;;;;;;338912;29;1427;-55
2023/11/16 00:00:18;;;;;;;71.75;48.60;;;15.50;70.20;;;;;;338965;29;984;-56
2023/11/16 00:00:29;;;;;;;72.57;49.78;;;15.50;70.20;;;;;;338920;29;930;-55
2023/11/16 00:00:41;;;;;;;75.65;50.42;;;15.50;70.20;;;;;;338969;29;1020;-56
2023/11/16 00:00:52;;;;;;;74.95;49.70;;;15.60;70.20;;;;;;338960;29;862;-56
2023/11/16 00:01:02;;;;;;;71.80;48.65;;;15.50;70.10;;;;;;338854;29;1453;-56
2023/11/16 00:01:14;;;;;;;71.90;48.53;;;15.50;70.10;;;;;;338923;29;1145;-56
2023/11/16 00:01:28;;;;;;;73.40;49.05;;;15.50;70.10;;;;;;338973;29;1890;-56
2023/11/16 00:01:39;;;;;;;77.22;50.03;;;15.50;70.10;;;;;;338975;29;1005;-57
2023/11/16 00:01:50;;;;;;;78.22;50.55;;;15.50;70.00;;;;;;338865;29;1139;-56
2023/11/16 00:02:04;;;;;;;80.65;50.50;;;15.50;70.00;;;;;;338938;29;1049;-56
2023/11/16 00:02:16;;;;;;;80.35;49.63;;;15.50;70.00;;;;;;338978;29;1044;-56
2023/11/16 00:02:27;;;;;;;78.32;49.28;;;15.50;70.10;;;;;;338929;29;974;-56
2023/11/16 00:02:38;;;;;;;75.97;49.60;;;15.60;70.10;;;;;;338869;29;992;-56
2023/11/16 00:02:49;;;;;;;74.68;50.08;;;15.50;70.10;;;;;;338964;29;1052;-56
2023/11/16 00:03:02;;;;;;;78.03;51.35;;;15.50;70.00;;;;;;338935;29;1130;-56
2023/11/16 00:03:13;;;;;;;77.20;51.17;;;15.60;70.00;;;;;;338957;29;973;-56
2023/11/16 00:03:24;;;;;;;76.10;50.20;;;15.50;70.00;;;;;;338867;29;1168;-57
2023/11/16 00:03:37;;;;;;;73.60;49.47;;;15.50;70.10;;;;;;338905;29;1128;-55
2023/11/16 00:03:50;;;;;;;74.82;49.38;;;15.60;70.10;;;;;;338969;29;1029;-56
2023/11/16 00:04:02;;;;;;;75.50;49.78;;;15.50;70.10;;;;;;338922;29;1040;-56
2023/11/16 00:04:13;;;;;;;73.50;50.13;;;15.50;70.10;;;;;;338889;29;1031;-56
2023/11/16 00:04:26;;;;;;;74.93;50.47;;;15.50;70.10;;;;;;338902;29;1109;-57
2023/11/16 00:04:36;;;;;;;74.90;50.70;;;15.50;70.10;;;;;;338895;29;1132;-57
2023/11/16 00:04:48;;;;;;;75.70;50.70;;;15.60;70.10;;;;;;338924;29;1013;-56
2023/11/16 00:05:00;;;;;;;77.97;50.95;;;15.60;70.10;;;;;;338852;29;1022;-56
2023/11/16 00:05:13;;;;;;;81.05;50.97;;;15.50;70.10;;;;;;338998;29;826;-57
2023/11/16 00:05:25;;;;;;;81.40;50.78;;;15.60;70.00;;;;;;338958;29;1016;-56
2023/11/16 00:05:36;;;;;;;78.53;50.20;;;15.50;70.00;;;;;;338910;29;1108;-55
2023/11/16 00:05:48;;;;;;;78.78;50.00;;;15.50;70.10;;;;;;338852;29;1305;-57
2023/11/16 00:05:58;;;;;;;76.75;48.97;;;15.50;70.10;;;;;;338969;29;1111;-55
2023/11/16 00:06:10;;;;;;;72.27;47.70;;;15.50;70.10;;;;;;338934;29;874;-55
2023/11/16 00:06:21;;;;;;;70.95;48.45;;;15.50;70.10;;;;;;338958;29;1032;-55
2023/11/16 00:06:32;;;;;;;72.78;49.30;;;15.50;70.10;;;;;;338885;29;906;-56
2023/11/16 00:06:43;;;;;;;73.60;50.13;;;15.50;70.10;;;;;;338861;29;1089;-56
2023/11/16 00:06:54;;;;;;;72.30;49.08;;;15.60;70.10;;;;;;338943;29;1047;-56
2023/11/16 00:07:06;;;;;;;72.63;49.00;;;15.50;70.10;;;;;;338865;29;1105;-56
2023/11/16 00:07:17;;;;;;;75.43;49.67;;;15.60;70.10;;;;;;338889;29;1080;-55
2023/11/16 00:07:28;;;;;;;74.75;49.65;;;15.60;70.10;;;;;;338928;29;1448;-56
2023/11/16 00:07:46;;;;;;;76.10;49.70;;;15.60;70.10;;;;;;338943;29;973;-55
2023/11/16 00:07:57;;;;;;;74.34;49.34;;;15.50;70.10;;;;;;338895;29;971;-55
2023/11/16 00:08:10;;;;;;;75.18;49.70;;;15.50;70.10;;;;;;338960;29;1064;-56
2023/11/16 00:08:20;;;;;;;75.72;50.30;;;15.60;70.20;;;;;;338915;29;1125;-56
2023/11/16 00:08:31;;;;;;;76.47;50.37;;;15.50;70.20;;;;;;338837;29;1059;-55
2023/11/16 00:08:42;;;;;;;75.78;50.05;;;15.60;70.20;;;;;;338997;29;870;-56
2023/11/16 00:08:53;;;;;;;74.82;48.88;;;15.60;70.20;;;;;;338917;29;1021;-57
2023/11/16 00:09:04;;;;;;;72.72;48.17;;;15.60;70.10;;;;;;338824;29;1903;-56
2023/11/16 00:09:15;;;;;;;73.65;48.22;;;15.60;70.10;;;;;;338904;29;1107;-57
2023/11/16 00:09:27;;;;;;;73.40;48.47;;;15.60;70.10;;;;;;338878;29;1109;-55
2023/11/16 00:09:37;;;;;;;73.70;48.65;;;15.60;70.10;;;;;;338928;29;1049;-57
2023/11/16 00:09:48;;;;;;;76.43;49.70;;;15.50;70.10;;;;;;339003;29;1036;-57
2023/11/16 00:09:59;;;;;;;78.78;50.83;;;15.50;70.10;;;;;;338804;29;1084;-56
2023/11/16 00:10:11;;;;;;;80.60;51.58;;;15.60;70.10;;;;;;338901;29;1065;-56
2023/11/16 00:10:24;;;;;;;78.82;50.33;;;15.50;70.10;;;;;;338952;29;916;-56
2023/11/16 00:10:35;;;;;;;74.63;49.13;;;15.60;70.10;;;;;;338873;29;1048;-56
2023/11/16 00:10:45;;;;;;;76.47;49.20;;;15.60;70.20;;;;;;339007;29;969;-56
2023/11/16 00:10:59;;;;;;;74.75;49.55;;;15.50;70.20;;;;;;338937;29;1025;-57
2023/11/16 00:11:10;;;;;;;75.40;48.67;;;15.50;70.20;;;;;;338953;29;1114;-55
2023/11/16 00:11:21;;;;;;;77.85;48.67;;;15.50;70.20;;;;;;338784;29;1197;-56
2023/11/16 00:11:32;;;;;;;81.38;50.33;;;15.50;70.30;;;;;;338869;29;1473;-57
2023/11/16 00:11:43;;;;;;;83.97;51.03;;;15.60;70.40;;;;;;338931;29;1016;-57
2023/11/16 00:11:54;;;;;;;82.57;51.15;;;15.50;70.40;;;;;;339017;29;866;-56
2023/11/16 00:12:06;;;;;;;85.88;51.15;;;15.50;70.40;;;;;;338863;29;972;-57
2023/11/16 00:12:16;;;;;;;85.63;52.08;;;15.50;70.50;;;;;;338935;29;1025;-56
2023/11/16 00:12:27;;;;;;;83.55;51.92;;;15.60;70.50;;;;;;338960;29;862;-56
2023/11/16 00:12:39;;;;;;;76.50;50.42;;;15.60;70.50;;;;;;338972;29;933;-57
2023/11/16 00:12:50;;;;;;;76.38;50.63;;;15.60;70.60;;;;;;338876;29;1028;-57
2023/11/16 00:13:05;;;;;;;78.38;51.28;;;15.50;70.50;;;;;;338895;29;1406;-55
2023/11/16 00:13:15;;;;;;;78.95;51.33;;;15.60;70.60;;;;;;338910;29;1009;-56
2023/11/16 00:13:26;;;;;;;81.07;51.47;;;15.50;70.60;;;;;;338843;29;918;-56
2023/11/16 00:13:37;;;;;;;82.03;51.42;;;15.60;70.60;;;;;;338889;29;1014;-56
2023/11/16 00:13:48;;;;;;;84.35;51.08;;;15.60;70.60;;;;;;338847;29;1156;-57
2023/11/16 00:13:58;;;;;;;83.70;50.17;;;15.50;70.60;;;;;;338927;29;1097;-56
2023/11/16 00:14:10;;;;;;;82.17;50.77;;;15.60;70.60;;;;;;338839;29;1058;-56
2023/11/16 00:14:21;;;;;;;80.47;51.63;;;15.60;70.60;;;;;;338939;29;985;-56
2023/11/16 00:14:33;;;;;;;79.43;51.50;;;15.60;70.60;;;;;;338962;29;1950;-57
2023/11/16 00:14:45;;;;;;;80.28;50.95;;;15.60;70.70;;;;;;338886;29;1003;-57
2023/11/16 00:14:58;;;;;;;83.75;51.45;;;15.50;70.70;;;;;;338876;29;1093;-57
2023/11/16 00:15:09;;;;;;;87.63;51.17;;;15.60;70.70;;;;;;338883;29;1159;-57
2023/11/16 00:15:20;;;;;;;89.18;51.90;;;15.60;70.70;;;;;;338866;29;890;-57
2023/11/16 00:15:30;;;;;;;89.13;52.33;;;15.60;70.70;;;;;;338937;29;997;-56
2023/11/16 00:15:41;;;;;;;90.35;52.53;;;15.60;70.80;;;;;;338972;29;916;-56
2023/11/16 00:15:52;;;;;;;91.53;52.90;;;15.60;70.80;;;;;;338995;29;1016;-56
2023/11/16 00:16:04;;;;;;;91.75;53.03;;;15.60;70.70;;;;;;338855;29;945;-56
2023/11/16 00:16:16;;;;;;;91.28;52.75;;;15.60;70.70;;;;;;338969;29;1883;-56
2023/11/16 00:16:28;;;;;;;89.10;52.72;;;15.60;70.80;;;;;;338939;29;1056;-56
2023/11/16 00:16:41;;;;;;;90.03;52.83;;;15.60;70.80;;;;;;338907;29;1116;-56
2023/11/16 00:16:51;;;;;;;88.95;52.00;;;15.60;70.80;;;;;;338847;29;1170;-58
2023/11/16 00:17:02;;;;;;;89.25;52.22;;;15.60;70.80;;;;;;338980;29;985;-56
2023/11/16 00:17:13;;;;;;;90.25;53.15;;;15.60;70.80;;;;;;338938;29;1888;-56
2023/11/16 00:17:24;;;;;;;92.18;54.17;;;15.60;70.90;;;;;;338939;29;811;-57
2023/11/16 00:17:37;;;;;;;93.60;53.95;;;15.60;70.80;;;;;;338900;29;1750;-57
2023/11/16 00:17:48;;;;;;;94.18;53.10;;;15.60;70.90;;;;;;338945;29;892;-57
2023/11/16 00:17:58;;;;;;;96.03;53.00;;;15.60;70.90;;;;;;338954;29;1005;-56
2023/11/16 00:18:09;;;;;;;93.40;52.13;;;15.60;70.90;;;;;;338834;29;1220;-57
2023/11/16 00:18:20;;;;;;;97.18;52.83;;;15.60;71.00;;;;;;338868;29;1077;-56
2023/11/16 00:18:34;;;;;;;96.10;52.78;;;15.60;71.00;;;;;;338956;29;1071;-56
2023/11/16 00:18:46;;;;;;;97.15;53.50;;;15.60;71.00;;;;;;338907;29;1856;-55
2023/11/16 00:18:57;;;;;;;93.82;53.50;;;15.60;71.10;;;;;;338939;29;905;-56
2023/11/16 00:19:08;;;;;;;93.20;53.15;;;15.60;71.10;;;;;;338858;29;862;-56
2023/11/16 00:19:19;;;;;;;95.47;54.42;;;15.60;71.20;;;;;;338951;29;860;-56
2023/11/16 00:19:30;;;;;;;97.78;54.67;;;15.60;71.20;;;;;;338961;29;1079;-56
2023/11/16 00:19:41;;;;;;;96.93;54.85;;;15.60;71.20;;;;;;338958;29;802;-55
2023/11/16 00:19:52;;;;;;;97.47;54.20;;;15.60;71.20;;;;;;338858;29;1032;-57
2023/11/16 00:20:22;;;;;;;97.05;52.97;;;15.70;71.20;;;;;;338846;29;985;-56
2023/11/16 00:20:35;;;;;;;99.45;53.70;;;15.70;71.10;;;;;;338675;29;969;-56
2023/11/16 00:20:46;;;;;;;95.47;52.80;;;15.70;71.10;;;;;;338940;29;1320;-55
2023/11/16 00:20:57;;;;;;;94.65;52.63;;;15.70;71.10;;;;;;338877;29;1036;-55
2023/11/16 00:21:08;;;;;;;98.30;53.90;;;15.70;71.10;;;;;;338854;29;1076;-56
2023/11/16 00:21:19;;;;;;;102.90;55.25;;;15.60;71.10;;;;;;338891;29;894;-56
2023/11/16 00:21:30;;;;;;;103.23;54.90;;;15.60;71.00;;;;;;338899;29;830;-56
2023/11/16 00:21:41;;;;;;;99.25;53.85;;;15.70;71.10;;;;;;338926;29;1116;-56
2023/11/16 00:21:52;;;;;;;97.10;53.50;;;15.60;71.10;;;;;;338909;29;881;-56
2023/11/16 00:22:03;;;;;;;96.35;52.90;;;15.60;71.10;;;;;;338958;29;853;-55
2023/11/16 00:22:14;;;;;;;95.80;53.08;;;15.60;71.00;;;;;;338817;29;993;-57
2023/11/16 00:22:26;;;;;;;99.88;54.05;;;15.70;71.10;;;;;;338911;29;842;-55
2023/11/16 00:22:40;;;;;;;102.85;54.55;;;15.60;71.10;;;;;;338989;29;939;-55
2023/11/16 00:22:51;;;;;;;101.97;54.63;;;15.60;71.10;;;;;;338955;29;993;-56
2023/11/16 00:23:03;;;;;;;102.00;54.83;;;15.60;71.20;;;;;;338727;29;1151;-57
2023/11/16 00:23:13;;;;;;;103.38;54.65;;;15.70;71.20;;;;;;338969;29;1052;-57
2023/11/16 00:23:24;;;;;;;104.00;54.08;;;15.70;71.20;;;;;;338880;29;1076;-56
2023/11/16 00:23:35;;;;;;;100.60;52.70;;;15.70;71.20;;;;;;338838;29;1270;-55
2023/11/16 00:23:46;;;;;;;98.30;52.78;;;15.60;71.20;;;;;;338893;29;1096;-55
2023/11/16 00:23:56;;;;;;;94.70;52.03;;;15.70;71.20;;;;;;338743;29;1592;-55
2023/11/16 00:24:08;;;;;;;95.68;51.78;;;15.70;71.30;;;;;;338952;29;949;-56
2023/11/16 00:24:19;;;;;;;92.63;50.80;;;15.70;71.30;;;;;;338927;29;1104;-56
2023/11/16 00:24:30;;;;;;;94.97;51.35;;;15.60;71.30;;;;;;338944;29;1004;-57
2023/11/16 00:24:41;;;;;;;88.93;50.78;;;15.70;71.30;;;;;;338927;29;1041;-55
2023/11/16 00:24:51;;;;;;;88.97;51.58;;;15.70;71.30;;;;;;338833;29;921;-59
2023/11/16 00:25:06;;;;;;;90.93;51.95;;;15.60;71.30;;;;;;338881;29;932;-55
2023/11/16 00:25:17;;;;;;;92.15;51.50;;;15.70;71.30;;;;;;338900;29;1865;-54
2023/11/16 00:25:28;;;;;;;94.22;51.14;;;15.70;71.30;;;;;;338946;29;954;-57
2023/11/16 00:25:38;;;;;;;96.80;50.87;;;15.60;71.20;;;;;;338924;29;965;-55
2023/11/16 00:25:49;;;;;;;99.25;52.50;;;15.70;71.30;;;;;;338900;29;911;-55
2023/11/16 00:26:00;;;;;;;96.05;53.35;;;15.70;71.20;;;;;;338873;29;1024;-56
2023/11/16 00:26:11;;;;;;;96.22;53.85;;;15.70;71.20;;;;;;338960;29;1079;-55
2023/11/16 00:26:22;;;;;;;97.95;53.47;;;15.70;71.20;;;;;;338901;29;1009;-57
2023/11/16 00:26:36;;;;;;;97.47;53.63;;;15.70;71.20;;;;;;338923;29;862;-57
2023/11/16 00:26:50;;;;;;;98.82;53.47;;;15.70;71.20;;;;;;338872;29;909;-58
2023/11/16 00:27:01;;;;;;;98.30;53.72;;;15.70;71.20;;;;;;338874;29;1124;-57
2023/11/16 00:27:12;;;;;;;100.25;53.78;;;15.70;71.20;;;;;;338872;29;1159;-57
2023/11/16 00:27:25;;;;;;;97.70;53.10;;;15.70;71.20;;;;;;338930;29;1116;-59
2023/11/16 00:27:36;;;;;;;91.63;52.85;;;15.70;71.20;;;;;;338852;29;1124;-56
2023/11/16 00:27:48;;;;;;;89.30;51.80;;;15.70;71.20;;;;;;338837;29;1088;-57
2023/11/16 00:27:59;;;;;;;85.07;50.60;;;15.70;71.20;;;;;;338906;29;1218;-57
2023/11/16 00:28:10;;;;;;;85.63;50.38;;;15.60;71.20;;;;;;338908;29;1044;-55
2023/11/16 00:28:24;;;;;;;83.70;50.03;;;15.70;71.30;;;;;;338826;29;1012;-57
2023/11/16 00:28:36;;;;;;;85.15;49.65;;;15.70;71.20;;;;;;338893;29;1163;-57
2023/11/16 00:28:48;;;;;;;84.28;49.85;;;15.70;71.20;;;;;;338932;29;1200;-57
2023/11/16 00:29:00;;;;;;;86.78;49.83;;;15.70;71.10;;;;;;338857;29;1887;-56
2023/11/16 00:29:16;;;;;;;88.68;50.30;;;15.70;71.10;;;;;;338872;29;922;-58
2023/11/16 00:29:26;;;;;;;89.20;50.50;;;15.70;71.00;;;;;;338920;29;1839;-56
2023/11/16 00:29:38;;;;;;;85.45;48.90;;;15.70;71.00;;;;;;338881;29;1088;-57
2023/11/16 00:29:49;;;;;;;81.75;48.33;;;15.70;71.00;;;;;;338960;29;944;-57
2023/11/16 00:30:00;;;;;;;80.87;47.97;;;15.70;71.00;;;;;;338755;29;1420;-58
2023/11/16 00:30:12;;;;;;;82.95;48.65;;;15.70;71.00;;;;;;338866;29;1097;-57
2023/11/16 00:30:23;;;;;;;88.43;49.45;;;15.70;71.10;;;;;;338941;29;893;-59
2023/11/16 00:30:34;;;;;;;91.10;50.28;;;15.70;71.10;;;;;;338914;29;928;-56
2023/11/16 00:30:44;;;;;;;91.07;49.93;;;15.70;71.10;;;;;;338816;29;1036;-57
2023/11/16 00:30:55;;;;;;;89.30;50.03;;;15.70;71.10;;;;;;338920;29;834;-56
2023/11/16 00:31:06;;;;;;;88.22;49.92;;;15.70;71.00;;;;;;338906;29;885;-55
2023/11/16 00:31:17;;;;;;;86.10;49.83;;;15.70;71.10;;;;;;338903;29;1009;-56
2023/11/16 00:31:30;;;;;;;84.97;48.78;;;15.70;71.10;;;;;;338835;29;995;-56
2023/11/16 00:31:40;;;;;;;86.93;48.63;;;15.70;71.10;;;;;;338966;29;893;-55
2023/11/16 00:31:51;;;;;;;83.93;48.07;;;15.70;71.10;;;;;;338889;29;928;-58
2023/11/16 00:32:04;;;;;;;85.32;48.30;;;15.70;71.10;;;;;;338875;29;1005;-55
2023/11/16 00:32:14;;;;;;;84.88;48.85;;;15.70;71.00;;;;;;338845;29;1060;-56
2023/11/16 00:32:26;;;;;;;86.60;49.58;;;15.70;71.00;;;;;;338932;29;973;-55
2023/11/16 00:32:36;;;;;;;85.63;49.55;;;15.70;71.00;;;;;;338956;29;932;-56
2023/11/16 00:32:48;;;;;;;84.80;48.85;;;15.70;71.00;;;;;;338865;29;1506;-57
2023/11/16 00:32:58;;;;;;;86.80;48.75;;;15.70;71.10;;;;;;338840;29;989;-55
2023/11/16 00:33:09;;;;;;;85.75;47.47;;;15.70;71.10;;;;;;338887;29;985;-56
2023/11/16 00:33:20;;;;;;;87.53;47.97;;;15.70;71.10;;;;;;338962;29;890;-55
2023/11/16 00:33:31;;;;;;;83.40;48.07;;;15.70;71.10;;;;;;338929;29;981;-55
2023/11/16 00:33:45;;;;;;;84.22;49.35;;;15.70;71.10;;;;;;338836;29;1008;-55
2023/11/16 00:33:57;;;;;;;84.50;48.97;;;15.70;71.10;;;;;;338874;29;1112;-55
2023/11/16 00:34:08;;;;;;;86.75;49.20;;;15.70;71.10;;;;;;338906;29;953;-56
2023/11/16 00:34:19;;;;;;;85.20;48.88;;;15.70;71.10;;;;;;338954;29;1032;-55
2023/11/16 00:34:29;;;;;;;82.35;48.38;;;15.70;71.10;;;;;;338908;29;1099;-56
2023/11/16 00:34:40;;;;;;;82.10;47.97;;;15.70;71.00;;;;;;338875;29;1025;-55
2023/11/16 00:34:51;;;;;;;85.30;47.97;;;15.70;71.10;;;;;;338896;29;889;-56
2023/11/16 00:35:02;;;;;;;87.37;48.37;;;15.70;71.10;;;;;;338868;29;1005;-56
2023/11/16 00:35:13;;;;;;;86.38;47.75;;;15.70;71.20;;;;;;338826;29;1100;-55
2023/11/16 00:35:24;;;;;;;86.88;47.10;;;15.70;71.20;;;;;;338884;29;803;-56
2023/11/16 00:35:34;;;;;;;85.33;46.37;;;15.70;71.20;;;;;;338892;29;949;-55
2023/11/16 00:35:46;;;;;;;87.18;45.92;;;15.70;71.20;;;;;;338883;29;1096;-55
2023/11/16 00:35:58;;;;;;;82.88;45.08;;;15.70;71.30;;;;;;338847;29;974;-57
2023/11/16 00:36:11;;;;;;;82.00;45.22;;;15.70;71.30;;;;;;338909;29;1811;-56
2023/11/16 00:36:23;;;;;;;84.47;45.13;;;15.70;71.20;;;;;;338925;29;1052;-58
2023/11/16 00:36:38;;;;;;;84.82;45.85;;;15.70;71.20;;;;;;338895;29;1219;-56
2023/11/16 00:36:49;;;;;;;86.97;47.22;;;15.70;71.20;;;;;;338897;29;965;-57
2023/11/16 00:37:05;;;;;;;88.07;48.28;;;15.70;71.20;;;;;;338943;29;858;-56
2023/11/16 00:37:15;;;;;;;87.80;48.28;;;15.70;71.20;;;;;;338961;29;869;-58
2023/11/16 00:37:26;;;;;;;85.60;47.57;;;15.70;71.20;;;;;;338834;29;949;-56
2023/11/16 00:37:37;;;;;;;81.18;47.10;;;15.70;71.30;;;;;;338862;29;993;-56
2023/11/16 00:37:51;;;;;;;78.95;46.10;;;15.70;71.40;;;;;;338872;29;1068;-56
2023/11/16 00:38:02;;;;;;;82.32;46.63;;;15.70;71.40;;;;;;338856;29;1000;-56
2023/11/16 00:38:16;;;;;;;84.60;46.60;;;15.70;71.40;;;;;;338888;29;961;-57
2023/11/16 00:38:27;;;;;;;80.80;46.03;;;15.70;71.50;;;;;;338814;29;1112;-56
2023/11/16 00:38:38;;;;;;;74.55;43.75;;;15.70;71.60;;;;;;338852;29;1463;-57
2023/11/16 00:38:49;;;;;;;75.60;43.13;;;15.70;71.60;;;;;;338844;29;996;-57
2023/11/16 00:39:00;;;;;;;77.05;42.83;;;15.70;71.60;;;;;;338933;29;989;-56
2023/11/16 00:39:12;;;;;;;79.53;43.70;;;15.70;71.60;;;;;;338899;29;897;-56
2023/11/16 00:39:23;;;;;;;79.00;44.05;;;15.70;71.60;;;;;;338877;29;1266;-58
2023/11/16 00:39:34;;;;;;;77.40;43.80;;;15.70;71.70;;;;;;338787;29;1076;-55
2023/11/16 00:39:45;;;;;;;76.60;43.53;;;15.70;71.70;;;;;;338909;29;905;-55
2023/11/16 00:39:57;;;;;;;78.13;43.05;;;15.70;71.70;;;;;;338939;29;977;-54
2023/11/16 00:40:10;;;;;;;78.25;42.70;;;15.70;71.60;;;;;;338874;29;1277;-55
2023/11/16 00:40:22;;;;;;;79.00;43.15;;;15.70;71.70;;;;;;338813;29;1063;-56
2023/11/16 00:40:33;;;;;;;80.03;42.40;;;15.70;71.70;;;;;;338917;29;1056;-55
2023/11/16 00:40:44;;;;;;;82.28;41.78;;;15.70;71.70;;;;;;338933;29;1008;-56
2023/11/16 00:40:55;;;;;;;78.75;40.53;;;15.70;71.70;;;;;;338856;29;1067;-55
2023/11/16 00:41:10;;;;;;;72.22;39.70;;;15.70;71.80;;;;;;338961;29;1060;-55
2023/11/16 00:41:20;;;;;;;76.13;40.40;;;15.70;71.80;;;;;;338906;29;1017;-57
2023/11/16 00:41:31;;;;;;;80.60;41.43;;;15.70;71.80;;;;;;338834;29;1016;-57
2023/11/16 00:41:42;;;;;;;80.30;41.50;;;15.70;71.80;;;;;;338971;29;893;-56
2023/11/16 00:41:53;;;;;;;80.28;41.35;;;15.70;71.80;;;;;;338864;29;1024;-56
2023/11/16 00:42:05;;;;;;;78.43;41.17;;;15.70;71.80;;;;;;338866;29;861;-56
2023/11/16 00:42:22;;;;;;;80.20;41.58;;;15.70;71.80;;;;;;338809;29;1559;-55
2023/11/16 00:42:36;;;;;;;78.20;41.45;;;15.70;71.80;;;;;;338945;29;1016;-55
2023/11/16 00:42:47;;;;;;;77.50;40.28;;;15.70;71.80;;;;;;338848;29;1119;-56
2023/11/16 00:42:58;;;;;;;75.50;39.25;;;15.70;71.80;;;;;;338873;29;874;-57
2023/11/16 00:43:09;;;;;;;74.13;39.15;;;15.70;71.80;;;;;;338837;29;1032;-57
2023/11/16 00:43:20;;;;;;;71.10;39.38;;;15.70;71.80;;;;;;338842;29;1113;-55
2023/11/16 00:43:30;;;;;;;73.25;40.08;;;15.70;71.80;;;;;;338850;29;1144;-56
2023/11/16 00:43:43;;;;;;;74.15;40.35;;;15.70;71.80;;;;;;338875;29;865;-56
2023/11/16 00:43:54;;;;;;;73.63;40.83;;;15.70;71.70;;;;;;338848;29;1105;-56
2023/11/16 00:44:05;;;;;;;76.83;42.03;;;15.70;71.70;;;;;;338862;29;1045;-55
2023/11/16 00:44:19;;;;;;;77.13;42.33;;;15.70;71.70;;;;;;338603;29;1344;-56
2023/11/16 00:44:30;;;;;;;76.15;42.03;;;15.70;71.70;;;;;;338890;29;1032;-56
2023/11/16 00:44:40;;;;;;;76.20;42.27;;;15.70;71.80;;;;;;338772;29;1148;-57
2023/11/16 00:44:52;;;;;;;76.05;41.95;;;15.70;71.90;;;;;;338899;29;810;-56
2023/11/16 00:45:03;;;;;;;81.95;43.70;;;15.70;71.90;;;;;;338824;29;1039;-56
2023/11/16 00:45:13;;;;;;;84.43;44.38;;;15.70;71.90;;;;;;338923;29;1923;-57
2023/11/16 00:45:24;;;;;;;83.60;43.90;;;15.70;71.90;;;;;;338875;29;898;-56
2023/11/16 00:45:37;;;;;;;82.95;44.17;;;15.70;71.90;;;;;;338935;29;866;-57
2023/11/16 00:45:48;;;;;;;83.63;44.40;;;15.70;72.00;;;;;;338807;29;1817;-58
2023/11/16 00:45:59;;;;;;;84.53;43.97;;;15.70;72.00;;;;;;338851;29;1845;-55
2023/11/16 00:46:16;;;;;;;84.28;44.13;;;15.70;72.10;;;;;;338855;29;846;-56
2023/11/16 00:46:27;;;;;;;83.78;44.30;;;15.70;72.10;;;;;;338847;29;1140;-55
2023/11/16 00:46:39;;;;;;;82.07;43.72;;;15.70;72.20;;;;;;338801;29;1639;-56
2023/11/16 00:46:51;;;;;;;81.80;42.38;;;15.70;72.20;;;;;;338813;29;1028;-56
2023/11/16 00:47:02;;;;;;;84.78;42.58;;;15.70;72.30;;;;;;338897;29;1006;-56
2023/11/16 00:47:18;;;;;;;88.70;43.05;;;15.70;72.30;;;;;;338966;29;877;-55
2023/11/16 00:47:29;;;;;;;84.50;42.50;;;15.70;72.30;;;;;;338793;29;1492;-57
2023/11/16 00:47:40;;;;;;;83.47;42.30;;;15.70;72.30;;;;;;338921;29;1091;-56
2023/11/16 00:47:51;;;;;;;83.00;41.92;;;15.70;72.30;;;;;;338857;29;1070;-56
2023/11/16 00:48:02;;;;;;;81.23;41.03;;;15.70;72.30;;;;;;338834;29;1020;-57
2023/11/16 00:48:12;;;;;;;79.22;39.35;;;15.70;72.30;;;;;;338870;29;1028;-56
2023/11/16 00:48:23;;;;;;;77.05;37.65;;;15.70;72.40;;;;;;338858;29;1864;-57
2023/11/16 00:48:34;;;;;;;79.70;37.77;;;15.70;72.30;;;;;;338921;29;957;-57
2023/11/16 00:48:45;;;;;;;80.03;38.03;;;15.70;72.30;;;;;;338869;29;1063;-56
2023/11/16 00:48:56;;;;;;;82.93;38.42;;;15.70;72.30;;;;;;338821;29;1041;-57
2023/11/16 00:49:07;;;;;;;76.77;37.60;;;15.70;72.30;;;;;;338784;29;1974;-57
2023/11/16 00:49:18;;;;;;;76.57;38.13;;;15.70;72.30;;;;;;338933;29;985;-54
2023/11/16 00:49:28;;;;;;;75.70;37.80;;;15.70;72.30;;;;;;338905;29;854;-56
2023/11/16 00:49:39;;;;;;;75.85;36.75;;;15.70;72.30;;;;;;338808;29;1122;-56
2023/11/16 00:49:50;;;;;;;70.88;35.17;;;15.70;72.30;;;;;;338979;29;920;-56
2023/11/16 00:50:01;;;;;;;69.20;35.33;;;15.70;72.30;;;;;;338952;29;858;-55
2023/11/16 00:50:12;;;;;;;66.35;34.45;;;15.70;72.20;;;;;;338882;29;997;-56
2023/11/16 00:50:22;;;;;;;67.78;33.92;;;15.70;72.20;;;;;;338807;29;1072;-56
2023/11/16 00:50:33;;;;;;;67.10;32.77;;;15.70;72.20;;;;;;338788;29;1529;-56
2023/11/16 00:50:44;;;;;;;67.82;32.25;;;15.70;72.00;;;;;;338880;29;933;-57
2023/11/16 00:50:55;;;;;;;64.57;31.98;;;15.70;72.00;;;;;;338957;29;858;-57
2023/11/16 00:51:07;;;;;;;63.53;32.40;;;15.70;72.00;;;;;;338862;29;902;-57
2023/11/16 00:51:18;;;;;;;60.95;32.97;;;15.70;72.10;;;;;;338909;29;877;-58
2023/11/16 00:51:29;;;;;;;68.18;33.53;;;15.70;72.20;;;;;;338848;29;989;-57
2023/11/16 00:51:40;;;;;;;73.80;34.33;;;15.70;72.20;;;;;;338947;29;812;-56
2023/11/16 00:51:51;;;;;;;79.07;35.30;;;15.70;72.20;;;;;;338820;29;1112;-56
2023/11/16 00:52:01;;;;;;;77.85;35.22;;;15.70;72.10;;;;;;338919;29;958;-58
2023/11/16 00:52:13;;;;;;;76.00;34.95;;;15.70;72.10;;;;;;338805;29;1021;-57
2023/11/16 00:52:24;;;;;;;74.80;34.35;;;15.70;72.20;;;;;;338931;29;1971;-56
2023/11/16 00:52:35;;;;;;;75.38;34.90;;;15.70;72.20;;;;;;338838;29;1032;-57
2023/11/16 00:52:47;;;;;;;69.33;35.00;;;15.70;72.10;;;;;;338900;29;1063;-55
2023/11/16 00:52:57;;;;;;;68.32;35.70;;;15.70;72.10;;;;;;338770;29;1495;-55
2023/11/16 00:53:09;;;;;;;69.80;35.67;;;15.70;72.10;;;;;;338867;29;1088;-55
2023/11/16 00:53:20;;;;;;;72.32;36.30;;;15.70;72.10;;;;;;338841;29;981;-56
2023/11/16 00:53:32;;;;;;;68.75;35.13;;;15.70;72.20;;;;;;338933;29;880;-55
2023/11/16 00:53:43;;;;;;;66.43;34.38;;;15.70;72.20;;;;;;338813;29;1231;-55
2023/11/16 00:53:55;;;;;;;73.88;34.88;;;15.70;72.30;;;;;;338880;29;893;-55
2023/11/16 00:54:05;;;;;;;76.90;34.53;;;15.70;72.30;;;;;;338842;29;929;-56
2023/11/16 00:54:16;;;;;;;76.15;34.53;;;15.70;72.30;;;;;;338894;29;898;-55
2023/11/16 00:54:27;;;;;;;76.45;34.33;;;15.70;72.40;;;;;;338787;29;1104;-56
2023/11/16 00:54:38;;;;;;;74.50;34.72;;;15.70;72.40;;;;;;338847;29;1275;-55
2023/11/16 00:54:49;;;;;;;73.93;34.40;;;15.70;72.40;;;;;;338852;29;1013;-55
2023/11/16 00:55:00;;;;;;;71.40;33.60;;;15.70;72.40;;;;;;338884;29;1894;-56
2023/11/16 00:55:11;;;;;;;72.65;33.10;;;15.70;72.40;;;;;;338819;29;862;-55
2023/11/16 00:55:22;;;;;;;78.30;34.80;;;15.70;72.40;;;;;;338899;29;1041;-55
2023/11/16 00:55:32;;;;;;;82.18;35.83;;;15.70;72.40;;;;;;338752;29;1089;-55
2023/11/16 00:55:43;;;;;;;79.07;35.77;;;15.70;72.40;;;;;;338886;29;1088;-56
2023/11/16 00:55:54;;;;;;;74.45;35.03;;;15.70;72.40;;;;;;338932;29;1071;-56
2023/11/16 00:56:06;;;;;;;68.60;34.03;;;15.70;72.50;;;;;;338733;29;926;-56
2023/11/16 00:56:18;;;;;;;70.88;34.78;;;15.70;72.50;;;;;;338888;29;934;-57
2023/11/16 00:56:28;;;;;;;72.60;34.70;;;15.70;72.50;;;;;;338785;29;971;-57
2023/11/16 00:56:39;;;;;;;75.13;34.53;;;15.70;72.50;;;;;;338894;29;881;-57
2023/11/16 00:56:50;;;;;;;80.43;34.25;;;15.70;72.50;;;;;;338809;29;1466;-55
2023/11/16 00:57:01;;;;;;;80.82;34.17;;;15.70;72.50;;;;;;338776;29;1044;-55
2023/11/16 00:57:13;;;;;;;78.97;34.03;;;15.70;72.50;;;;;;338811;29;1136;-56
2023/11/16 00:57:24;;;;;;;72.55;33.53;;;15.70;72.50;;;;;;338846;29;1271;-59
2023/11/16 00:57:34;;;;;;;73.57;33.63;;;15.70;72.40;;;;;;338808;29;1086;-56
2023/11/16 00:57:47;;;;;;;79.05;34.38;;;15.70;72.40;;;;;;338929;29;1013;-55
2023/11/16 00:57:58;;;;;;;80.78;35.42;;;15.70;72.40;;;;;;338891;29;985;-55
2023/11/16 00:58:09;;;;;;;74.90;34.80;;;15.70;72.40;;;;;;338789;29;1212;-55
2023/11/16 00:58:21;;;;;;;70.17;33.80;;;15.70;72.40;;;;;;338864;29;961;-56
2023/11/16 00:58:32;;;;;;;71.13;32.88;;;15.70;72.40;;;;;;338854;29;1005;-56
2023/11/16 00:58:44;;;;;;;79.10;32.83;;;15.70;72.40;;;;;;338785;29;1119;-58
2023/11/16 00:58:55;;;;;;;87.78;33.72;;;15.70;72.30;;;;;;338885;29;1004;-57
2023/11/16 00:59:06;;;;;;;94.32;35.08;;;15.70;72.30;;;;;;338833;29;1179;-56
2023/11/16 00:59:20;;;;;;;89.30;35.42;;;15.70;72.20;;;;;;338786;29;1237;-56
2023/11/16 00:59:31;;;;;;;81.03;35.85;;;15.70;72.20;;;;;;338899;29;1036;-56
2023/11/16 00:59:42;;;;;;;76.40;36.08;;;15.70;72.20;;;;;;338903;29;830;-55
2023/11/16 00:59:52;;;;;;;71.32;34.78;;;15.70;72.30;;;;;;338725;29;1101;-57
2023/11/16 01:00:10;;;;;;;66.57;33.57;;;15.70;72.40;;;;;;338806;29;961;-56
2023/11/16 01:00:21;;;;;;;63.20;32.40;;;15.70;72.40;;;;;;338863;29;1866;-56